sensor_id;sensor_type;location;lat;lon;timestamp;pressure;altitude;pressure_sealevel;temperature;humidity
5296;BME280;2670;42.720;23.336;2023-04-30T00:02:00;-22743.06;;;10.35;99.84
5296;BME280;2670;42.720;23.336;2023-04-30T00:04:28;-22744.84;;;10.41;99.09
5296;BME280;2670;42.720;23.336;2023-04-30T00:06:55;-22743.22;;;10.35;99.43
5296;BME280;2670;42.720;23.336;2023-04-30T00:09:22;-22744.41;;;10.39;98.79
5296;BME280;2670;42.720;23.336;2023-04-30T00:11:49;-22743.50;;;10.36;98.74
5296;BME280;2670;42.720;23.336;2023-04-30T00:14:15;-22742.19;;;10.32;99.29
5296;BME280;2670;42.720;23.336;2023-04-30T00:16:42;-22739.06;;;10.21;100.00
5296;BME280;2670;42.720;23.336;2023-04-30T00:19:09;-22739.81;;;10.23;98.75
5296;BME280;2670;42.720;23.336;2023-04-30T00:21:37;-22738.47;;;10.19;99.64
5296;BME280;2670;42.720;23.336;2023-04-30T00:24:04;-22737.88;;;10.17;100.00
5296;BME280;2670;42.720;23.336;2023-04-30T00:26:31;-22735.66;;;10.09;100.00
5296;BME280;2670;42.720;23.336;2023-04-30T00:28:58;-22733.72;;;10.03;100.00
5296;BME280;2670;42.720;23.336;2023-04-30T00:31:24;-22733.13;;;10.01;100.00
5296;BME280;2670;42.720;23.336;2023-04-30T00:33:54;-22730.47;;;9.91;100.00
5296;BME280;2670;42.720;23.336;2023-04-30T00:36:22;-22731.06;;;9.93;100.00
5296;BME280;2670;42.720;23.336;2023-04-30T00:38:50;-22728.69;;;9.85;100.00
5296;BME280;2670;42.720;23.336;2023-04-30T00:41:17;-22728.53;;;9.85;100.00
5296;BME280;2670;42.720;23.336;2023-04-30T00:43:44;-22729.44;;;9.88;100.00
5296;BME280;2670;42.720;23.336;2023-04-30T00:46:11;-22729.28;;;9.87;100.00
5296;BME280;2670;42.720;23.336;2023-04-30T00:48:38;-22729.56;;;9.88;100.00
5296;BME280;2670;42.720;23.336;2023-04-30T00:51:05;-22725.28;;;9.73;100.00
5296;BME280;2670;42.720;23.336;2023-04-30T00:53:33;-22727.34;;;9.81;100.00
5296;BME280;2670;42.720;23.336;2023-04-30T00:56:01;-22723.66;;;9.68;100.00
5296;BME280;2670;42.720;23.336;2023-04-30T00:58:28;-22722.16;;;9.63;100.00
5296;BME280;2670;42.720;23.336;2023-04-30T01:00:56;-22722.59;;;9.64;100.00
5296;BME280;2670;42.720;23.336;2023-04-30T01:03:24;-22717.28;;;9.46;100.00
5296;BME280;2670;42.720;23.336;2023-04-30T01:05:50;-22717.88;;;9.48;100.00
5296;BME280;2670;42.720;23.336;2023-04-30T01:08:18;-22715.94;;;9.41;100.00
5296;BME280;2670;42.720;23.336;2023-04-30T01:10:50;-22716.81;;;9.44;100.00
5296;BME280;2670;42.720;23.336;2023-04-30T01:13:24;-22717.56;;;9.47;100.00
5296;BME280;2670;42.720;23.336;2023-04-30T01:15:59;-22716.38;;;9.43;100.00
5296;BME280;2670;42.720;23.336;2023-04-30T01:18:32;-22715.03;;;9.38;100.00
5296;BME280;2670;42.720;23.336;2023-04-30T01:21:04;-22714.44;;;9.36;100.00
5296;BME280;2670;42.720;23.336;2023-04-30T01:23:46;-22713.13;;;9.32;100.00
5296;BME280;2670;42.720;23.336;2023-04-30T01:26:19;-22712.22;;;9.29;100.00
5296;BME280;2670;42.720;23.336;2023-04-30T01:28:52;-22710.16;;;9.21;100.00
5296;BME280;2670;42.720;23.336;2023-04-30T01:31:20;-22709.13;;;9.18;100.00
5296;BME280;2670;42.720;23.336;2023-04-30T01:33:49;-22707.63;;;9.13;100.00
5296;BME280;2670;42.720;23.336;2023-04-30T01:36:27;-22706.59;;;9.09;100.00
5296;BME280;2670;42.720;23.336;2023-04-30T01:41:53;-22706.44;;;9.09;100.00
5296;BME280;2670;42.720;23.336;2023-04-30T01:44:32;-22703.03;;;8.97;100.00
5296;BME280;2670;42.720;23.336;2023-04-30T01:47:24;-22702.13;;;8.94;100.00
5296;BME280;2670;42.720;23.336;2023-04-30T01:49:59;-22702.28;;;8.94;100.00
5296;BME280;2670;42.720;23.336;2023-04-30T01:52:35;-22702.44;;;8.95;100.00
5296;BME280;2670;42.720;23.336;2023-04-30T01:55:10;-22700.22;;;8.87;100.00
5296;BME280;2670;42.720;23.336;2023-04-30T01:57:42;-22699.63;;;8.85;100.00
5296;BME280;2670;42.720;23.336;2023-04-30T02:00:12;-22700.66;;;8.89;100.00
5296;BME280;2670;42.720;23.336;2023-04-30T02:02:41;-22701.84;;;8.93;100.00
5296;BME280;2670;42.720;23.336;2023-04-30T02:05:08;-22701.53;;;8.92;100.00
5296;BME280;2670;42.720;23.336;2023-04-30T02:07:37;-22703.47;;;8.98;100.00
5296;BME280;2670;42.720;23.336;2023-04-30T02:10:06;-22704.66;;;9.03;100.00
5296;BME280;2670;42.720;23.336;2023-04-30T02:12:33;-22702.28;;;8.94;100.00
5296;BME280;2670;42.720;23.336;2023-04-30T02:15:00;-22703.47;;;8.98;100.00
5296;BME280;2670;42.720;23.336;2023-04-30T02:17:28;-22704.22;;;9.01;100.00
5296;BME280;2670;42.720;23.336;2023-04-30T02:19:55;-22702.28;;;8.94;100.00
5296;BME280;2670;42.720;23.336;2023-04-30T02:22:22;-22704.66;;;9.03;100.00
5296;BME280;2670;42.720;23.336;2023-04-30T02:24:49;-22703.31;;;8.98;100.00
5296;BME280;2670;42.720;23.336;2023-04-30T02:27:16;-22702.13;;;8.94;100.00
5296;BME280;2670;42.720;23.336;2023-04-30T02:29:43;-22700.94;;;8.90;100.00
5296;BME280;2670;42.720;23.336;2023-04-30T02:32:10;-22701.41;;;8.91;100.00
5296;BME280;2670;42.720;23.336;2023-04-30T02:35:15;-22701.69;;;8.92;100.00
5296;BME280;2670;42.720;23.336;2023-04-30T02:37:42;-22701.41;;;8.91;100.00
5296;BME280;2670;42.720;23.336;2023-04-30T02:40:09;-22701.69;;;8.92;100.00
5296;BME280;2670;42.720;23.336;2023-04-30T02:42:36;-22697.84;;;8.79;100.00
5296;BME280;2670;42.720;23.336;2023-04-30T02:45:04;-22697.84;;;8.79;100.00
5296;BME280;2670;42.720;23.336;2023-04-30T02:47:30;-22695.91;;;8.72;100.00
5296;BME280;2670;42.720;23.336;2023-04-30T02:49:57;-22697.84;;;8.79;100.00
5296;BME280;2670;42.720;23.336;2023-04-30T02:52:25;-22697.84;;;8.79;100.00
5296;BME280;2670;42.720;23.336;2023-04-30T02:54:52;-22700.22;;;8.87;100.00
5296;BME280;2670;42.720;23.336;2023-04-30T02:57:19;-22700.81;;;8.89;100.00
5296;BME280;2670;42.720;23.336;2023-04-30T02:59:45;-22705.56;;;9.06;100.00
5296;BME280;2670;42.720;23.336;2023-04-30T03:02:12;-22709.25;;;9.18;100.00
5296;BME280;2670;42.720;23.336;2023-04-30T03:04:39;-22706.59;;;9.09;100.00
5296;BME280;2670;42.720;23.336;2023-04-30T03:07:06;-22703.78;;;9.00;100.00
5296;BME280;2670;42.720;23.336;2023-04-30T03:09:35;-22697.53;;;8.78;100.00
5296;BME280;2670;42.720;23.336;2023-04-30T03:12:01;-22695.91;;;8.72;100.00
5296;BME280;2670;42.720;23.336;2023-04-30T03:14:28;-22701.09;;;8.90;100.00
5296;BME280;2670;42.720;23.336;2023-04-30T03:16:55;-22698.88;;;8.83;100.00
5296;BME280;2670;42.720;23.336;2023-04-30T03:19:22;-22693.38;;;8.64;100.00
5296;BME280;2670;42.720;23.336;2023-04-30T03:21:50;-22694.41;;;8.67;100.00
5296;BME280;2670;42.720;23.336;2023-04-30T03:24:16;-22693.97;;;8.66;100.00
5296;BME280;2670;42.720;23.336;2023-04-30T03:26:44;-22691.47;;;8.57;100.00
5296;BME280;2670;42.720;23.336;2023-04-30T03:29:11;-22692.03;;;8.59;100.00
5296;BME280;2670;42.720;23.336;2023-04-30T03:31:38;-22690.72;;;8.55;100.00
5296;BME280;2670;42.720;23.336;2023-04-30T03:34:05;-22696.94;;;8.76;100.00
5296;BME280;2670;42.720;23.336;2023-04-30T03:36:31;-22698.72;;;8.82;100.00
5296;BME280;2670;42.720;23.336;2023-04-30T03:38:59;-22696.66;;;8.75;100.00
5296;BME280;2670;42.720;23.336;2023-04-30T03:41:25;-22697.69;;;8.79;100.00
5296;BME280;2670;42.720;23.336;2023-04-30T03:43:54;-22691.75;;;8.58;100.00
5296;BME280;2670;42.720;23.336;2023-04-30T03:46:20;-22690.72;;;8.55;100.00
5296;BME280;2670;42.720;23.336;2023-04-30T03:48:47;-22687.44;;;8.43;100.00
5296;BME280;2670;42.720;23.336;2023-04-30T03:51:14;-22688.34;;;8.46;100.00
5296;BME280;2670;42.720;23.336;2023-04-30T03:53:41;-22692.78;;;8.62;100.00
5296;BME280;2670;42.720;23.336;2023-04-30T03:56:07;-22693.22;;;8.63;100.00
5296;BME280;2670;42.720;23.336;2023-04-30T03:58:34;-22691.31;;;8.57;100.00
5296;BME280;2670;42.720;23.336;2023-04-30T04:01:03;-22691.31;;;8.57;100.00
5296;BME280;2670;42.720;23.336;2023-04-30T04:03:30;-22695.03;;;8.69;100.00
5296;BME280;2670;42.720;23.336;2023-04-30T04:05:58;-22690.84;;;8.55;100.00
5296;BME280;2670;42.720;23.336;2023-04-30T04:08:24;-22692.34;;;8.60;100.00
5296;BME280;2670;42.720;23.336;2023-04-30T04:10:51;-22691.91;;;8.59;100.00
5296;BME280;2670;42.720;23.336;2023-04-30T04:13:18;-22691.59;;;8.58;100.00
5296;BME280;2670;42.720;23.336;2023-04-30T04:15:45;-22694.72;;;8.68;100.00
5296;BME280;2670;42.720;23.336;2023-04-30T04:18:13;-22695.59;;;8.71;100.00
5296;BME280;2670;42.720;23.336;2023-04-30T04:20:39;-22694.56;;;8.68;100.00
5296;BME280;2670;42.720;23.336;2023-04-30T04:23:06;-22694.56;;;8.68;100.00
5296;BME280;2670;42.720;23.336;2023-04-30T04:25:33;-22696.19;;;8.73;100.00
5296;BME280;2670;42.720;23.336;2023-04-30T04:28:00;-22695.31;;;8.70;100.00
5296;BME280;2670;42.720;23.336;2023-04-30T04:30:27;-22691.75;;;8.58;100.00
5296;BME280;2670;42.720;23.336;2023-04-30T04:32:54;-22694.56;;;8.68;100.00
5296;BME280;2670;42.720;23.336;2023-04-30T04:35:22;-22691.00;;;8.56;100.00
5296;BME280;2670;42.720;23.336;2023-04-30T04:37:48;-22693.22;;;8.63;100.00
5296;BME280;2670;42.720;23.336;2023-04-30T04:40:15;-22687.75;;;8.44;100.00
5296;BME280;2670;42.720;23.336;2023-04-30T04:42:42;-22693.53;;;8.64;100.00
5296;BME280;2670;42.720;23.336;2023-04-30T04:45:10;-22699.63;;;8.85;100.00
5296;BME280;2670;42.720;23.336;2023-04-30T04:47:36;-22700.81;;;8.89;100.00
5296;BME280;2670;42.720;23.336;2023-04-30T04:50:04;-22698.72;;;8.82;100.00
5296;BME280;2670;42.720;23.336;2023-04-30T04:52:32;-22701.41;;;8.91;100.00
5296;BME280;2670;42.720;23.336;2023-04-30T04:54:59;-22699.16;;;8.84;100.00
5296;BME280;2670;42.720;23.336;2023-04-30T04:57:26;-22695.75;;;8.72;100.00
5296;BME280;2670;42.720;23.336;2023-04-30T04:59:52;-22696.78;;;8.76;100.00
5296;BME280;2670;42.720;23.336;2023-04-30T05:02:19;-22702.44;;;8.95;100.00
5296;BME280;2670;42.720;23.336;2023-04-30T05:04:47;-22702.88;;;8.96;100.00
5296;BME280;2670;42.720;23.336;2023-04-30T05:07:15;-22703.31;;;8.98;100.00
5296;BME280;2670;42.720;23.336;2023-04-30T05:09:43;-22705.56;;;9.06;100.00
5296;BME280;2670;42.720;23.336;2023-04-30T05:12:10;-22704.81;;;9.03;100.00
5296;BME280;2670;42.720;23.336;2023-04-30T05:14:37;-22707.63;;;9.13;100.00
5296;BME280;2670;42.720;23.336;2023-04-30T05:17:04;-22710.31;;;9.22;100.00
5296;BME280;2670;42.720;23.336;2023-04-30T05:19:31;-22711.19;;;9.25;100.00
5296;BME280;2670;42.720;23.336;2023-04-30T05:21:58;-22712.53;;;9.30;100.00
5296;BME280;2670;42.720;23.336;2023-04-30T05:24:25;-22713.84;;;9.34;100.00
5296;BME280;2670;42.720;23.336;2023-04-30T05:26:53;-22711.50;;;9.26;100.00
5296;BME280;2670;42.720;23.336;2023-04-30T05:29:20;-22708.97;;;9.17;100.00
5296;BME280;2670;42.720;23.336;2023-04-30T05:31:47;-22709.13;;;9.18;100.00
5296;BME280;2670;42.720;23.336;2023-04-30T05:34:14;-22708.22;;;9.15;100.00
5296;BME280;2670;42.720;23.336;2023-04-30T05:36:41;-22705.25;;;9.05;100.00
5296;BME280;2670;42.720;23.336;2023-04-30T05:39:09;-22710.91;;;9.24;100.00
5296;BME280;2670;42.720;23.336;2023-04-30T05:41:36;-22712.81;;;9.31;100.00
5296;BME280;2670;42.720;23.336;2023-04-30T05:44:04;-22710.91;;;9.24;100.00
5296;BME280;2670;42.720;23.336;2023-04-30T05:46:31;-22714.91;;;9.38;100.00
5296;BME280;2670;42.720;23.336;2023-04-30T05:48:59;-22715.34;;;9.39;100.00
5296;BME280;2670;42.720;23.336;2023-04-30T05:51:25;-22714.44;;;9.36;100.00
5296;BME280;2670;42.720;23.336;2023-04-30T05:53:52;-22717.56;;;9.47;100.00
5296;BME280;2670;42.720;23.336;2023-04-30T05:56:19;-22719.66;;;9.54;100.00
5296;BME280;2670;42.720;23.336;2023-04-30T05:58:46;-22718.59;;;9.51;100.00
5296;BME280;2670;42.720;23.336;2023-04-30T06:01:17;-22719.66;;;9.54;100.00
5296;BME280;2670;42.720;23.336;2023-04-30T06:03:43;-22720.84;;;9.58;100.00
5296;BME280;2670;42.720;23.336;2023-04-30T06:06:10;-22721.88;;;9.62;100.00
5296;BME280;2670;42.720;23.336;2023-04-30T06:08:37;-22721.28;;;9.60;100.00
5296;BME280;2670;42.720;23.336;2023-04-30T06:11:06;-22726.63;;;9.78;100.00
5296;BME280;2670;42.720;23.336;2023-04-30T06:13:33;-22727.50;;;9.81;100.00
5296;BME280;2670;42.720;23.336;2023-04-30T06:16:00;-22732.69;;;9.99;100.00
5296;BME280;2670;42.720;23.336;2023-04-30T06:18:28;-22730.03;;;9.90;100.00
5296;BME280;2670;42.720;23.336;2023-04-30T06:20:55;-22735.50;;;10.09;100.00
5296;BME280;2670;42.720;23.336;2023-04-30T06:23:21;-22741.00;;;10.28;100.00
5296;BME280;2670;42.720;23.336;2023-04-30T06:25:48;-22744.09;;;10.38;100.00
5296;BME280;2670;42.720;23.336;2023-04-30T06:28:15;-22742.47;;;10.33;100.00
5296;BME280;2670;42.720;23.336;2023-04-30T06:30:42;-22742.63;;;10.33;100.00
5296;BME280;2670;42.720;23.336;2023-04-30T06:33:09;-22745.75;;;10.44;100.00
5296;BME280;2670;42.720;23.336;2023-04-30T06:35:40;-22747.38;;;10.50;100.00
5296;BME280;2670;42.720;23.336;2023-04-30T06:38:07;-22748.41;;;10.53;100.00
5296;BME280;2670;42.720;23.336;2023-04-30T06:40:34;-22749.28;;;10.56;100.00
5296;BME280;2670;42.720;23.336;2023-04-30T06:43:01;-22750.78;;;10.61;100.00
5296;BME280;2670;42.720;23.336;2023-04-30T06:45:27;-22751.50;;;10.64;100.00
5296;BME280;2670;42.720;23.336;2023-04-30T06:47:54;-22752.41;;;10.67;100.00
5296;BME280;2670;42.720;23.336;2023-04-30T06:50:21;-22756.69;;;10.82;100.00
5296;BME280;2670;42.720;23.336;2023-04-30T06:52:50;-22760.09;;;10.93;100.00
5296;BME280;2670;42.720;23.336;2023-04-30T06:55:17;-22762.47;;;11.02;100.00
5296;BME280;2670;42.720;23.336;2023-04-30T06:57:43;-22765.59;;;11.12;97.79
5296;BME280;2670;42.720;23.336;2023-04-30T07:00:11;-22766.03;;;11.14;98.49
5296;BME280;2670;42.720;23.336;2023-04-30T07:02:39;-22767.66;;;11.19;98.93
5296;BME280;2670;42.720;23.336;2023-04-30T07:05:06;-22768.97;;;11.24;95.18
5296;BME280;2670;42.720;23.336;2023-04-30T07:07:33;-22778.16;;;11.56;91.65
5296;BME280;2670;42.720;23.336;2023-04-30T07:10:01;-22778.91;;;11.58;90.82
5296;BME280;2670;42.720;23.336;2023-04-30T07:12:29;-22780.22;;;11.63;90.83
5296;BME280;2670;42.720;23.336;2023-04-30T07:14:56;-22779.06;;;11.59;93.00
5296;BME280;2670;42.720;23.336;2023-04-30T07:17:22;-22782.44;;;11.70;92.79
5296;BME280;2670;42.720;23.336;2023-04-30T07:19:49;-22785.56;;;11.81;89.98
5296;BME280;2670;42.720;23.336;2023-04-30T07:22:16;-22788.38;;;11.91;89.01
5296;BME280;2670;42.720;23.336;2023-04-30T07:24:42;-22788.38;;;11.91;89.66
5296;BME280;2670;42.720;23.336;2023-04-30T07:27:11;-22788.06;;;11.90;90.61
5296;BME280;2670;42.720;23.336;2023-04-30T07:29:37;-22792.97;;;12.07;89.70
5296;BME280;2670;42.720;23.336;2023-04-30T07:32:06;-22793.84;;;12.10;89.09
5296;BME280;2670;42.720;23.336;2023-04-30T07:34:33;-22794.28;;;12.11;90.25
5296;BME280;2670;42.720;23.336;2023-04-30T07:36:59;-22796.06;;;12.17;90.79
5296;BME280;2670;42.720;23.336;2023-04-30T07:39:27;-22799.47;;;12.29;89.56
5296;BME280;2670;42.720;23.336;2023-04-30T07:41:55;-22804.50;;;12.46;89.17
5296;BME280;2670;42.720;23.336;2023-04-30T07:44:23;-22806.13;;;12.52;89.36
5296;BME280;2670;42.720;23.336;2023-04-30T07:46:50;-22809.06;;;12.62;87.06
5296;BME280;2670;42.720;23.336;2023-04-30T07:49:16;-22813.66;;;12.78;86.01
5296;BME280;2670;42.720;23.336;2023-04-30T07:51:43;-22815.56;;;12.85;85.62
5296;BME280;2670;42.720;23.336;2023-04-30T07:54:11;-22814.09;;;12.80;85.00
5296;BME280;2670;42.720;23.336;2023-04-30T07:56:37;-22820.28;;;13.01;85.10
5296;BME280;2670;42.720;23.336;2023-04-30T07:59:05;-22829.75;;;13.34;82.81
5296;BME280;2670;42.720;23.336;2023-04-30T08:01:33;-22829.31;;;13.32;78.60
5296;BME280;2670;42.720;23.336;2023-04-30T08:03:59;-22834.91;;;13.52;78.67
5296;BME280;2670;42.720;23.336;2023-04-30T08:06:26;-22841.72;;;13.75;75.83
5296;BME280;2670;42.720;23.336;2023-04-30T08:08:53;-22843.91;;;13.83;74.37
5296;BME280;2670;42.720;23.336;2023-04-30T08:11:20;-22846.44;;;13.91;73.60
5296;BME280;2670;42.720;23.336;2023-04-30T08:13:46;-22846.28;;;13.91;74.67
5296;BME280;2670;42.720;23.336;2023-04-30T08:16:13;-22846.13;;;13.90;73.81
5296;BME280;2670;42.720;23.336;2023-04-30T08:18:41;-22851.00;;;14.07;72.31
5296;BME280;2670;42.720;23.336;2023-04-30T08:21:10;-22849.53;;;14.02;72.29
5296;BME280;2670;42.720;23.336;2023-04-30T08:23:37;-22850.13;;;14.04;73.06
5296;BME280;2670;42.720;23.336;2023-04-30T08:26:04;-22844.94;;;13.86;74.64
5296;BME280;2670;42.720;23.336;2023-04-30T08:28:31;-22844.66;;;13.85;75.61
5296;BME280;2670;42.720;23.336;2023-04-30T08:30:57;-22846.72;;;13.92;73.83
5296;BME280;2670;42.720;23.336;2023-04-30T08:33:24;-22848.34;;;13.98;73.12
5296;BME280;2670;42.720;23.336;2023-04-30T08:35:56;-22852.31;;;14.12;74.40
5296;BME280;2670;42.720;23.336;2023-04-30T08:38:27;-22850.72;;;14.06;75.42
5296;BME280;2670;42.720;23.336;2023-04-30T08:40:56;-22851.59;;;14.09;75.02
5296;BME280;2670;42.720;23.336;2023-04-30T08:43:27;-22857.03;;;14.28;72.50
5296;BME280;2670;42.720;23.336;2023-04-30T08:45:54;-22860.28;;;14.39;72.35
5296;BME280;2670;42.720;23.336;2023-04-30T08:48:22;-22859.84;;;14.38;71.75
5296;BME280;2670;42.720;23.336;2023-04-30T08:50:52;-22868.56;;;14.68;69.74
5296;BME280;2670;42.720;23.336;2023-04-30T08:53:19;-22874.75;;;14.89;69.00
5296;BME280;2670;42.720;23.336;2023-04-30T08:55:46;-22877.84;;;15.00;68.21
5296;BME280;2670;42.720;23.336;2023-04-30T08:58:13;-22888.44;;;15.37;66.96
5296;BME280;2670;42.720;23.336;2023-04-30T09:00:40;-22893.31;;;15.54;67.02
5296;BME280;2670;42.720;23.336;2023-04-30T09:03:07;-22896.56;;;15.65;64.90
5296;BME280;2670;42.720;23.336;2023-04-30T09:05:35;-22903.03;;;15.87;63.18
5296;BME280;2670;42.720;23.336;2023-04-30T09:08:04;-22904.19;;;15.91;64.14
5296;BME280;2670;42.720;23.336;2023-04-30T09:10:32;-22908.75;;;16.07;62.67
5296;BME280;2670;42.720;23.336;2023-04-30T09:13:00;-22915.81;;;16.32;61.43
5296;BME280;2670;42.720;23.336;2023-04-30T09:15:27;-22921.56;;;16.52;61.23
5296;BME280;2670;42.720;23.336;2023-04-30T09:18:06;-22931.56;;;16.86;58.36
5296;BME280;2670;42.720;23.336;2023-04-30T09:20:33;-22931.41;;;16.86;56.08
5296;BME280;2670;42.720;23.336;2023-04-30T09:23:08;-22924.78;;;16.63;57.58
5296;BME280;2670;42.720;23.336;2023-04-30T09:25:39;-22926.13;;;16.67;56.31
5296;BME280;2670;42.720;23.336;2023-04-30T09:28:07;-22924.94;;;16.63;55.26
5296;BME280;2670;42.720;23.336;2023-04-30T09:30:34;-22919.22;;;16.43;55.47
5296;BME280;2670;42.720;23.336;2023-04-30T09:33:01;-22917.72;;;16.38;54.58
5296;BME280;2670;42.720;23.336;2023-04-30T09:35:28;-22914.34;;;16.27;54.41
5296;BME280;2670;42.720;23.336;2023-04-30T09:37:55;-22914.78;;;16.28;57.03
5296;BME280;2670;42.720;23.336;2023-04-30T09:40:34;-22918.63;;;16.41;56.08
5296;BME280;2670;42.720;23.336;2023-04-30T09:43:02;-22919.06;;;16.43;56.89
5296;BME280;2670;42.720;23.336;2023-04-30T09:45:38;-22917.72;;;16.38;57.22
5296;BME280;2670;42.720;23.336;2023-04-30T09:48:08;-22915.69;;;16.31;57.76
5296;BME280;2670;42.720;23.336;2023-04-30T09:50:37;-22918.91;;;16.42;59.09
5296;BME280;2670;42.720;23.336;2023-04-30T09:53:05;-22925.38;;;16.65;58.55
5296;BME280;2670;42.720;23.336;2023-04-30T09:55:35;-22929.78;;;16.80;57.19
5296;BME280;2670;42.720;23.336;2023-04-30T09:58:04;-22930.25;;;16.82;56.29
5296;BME280;2670;42.720;23.336;2023-04-30T10:00:32;-22931.84;;;16.87;56.15
5296;BME280;2670;42.720;23.336;2023-04-30T10:03:03;-22930.09;;;16.81;57.20
5296;BME280;2670;42.720;23.336;2023-04-30T10:05:35;-22933.03;;;16.91;55.59
5296;BME280;2670;42.720;23.336;2023-04-30T10:08:04;-22934.66;;;16.97;58.37
5296;BME280;2670;42.720;23.336;2023-04-30T10:10:35;-22940.53;;;17.17;54.31
5296;BME280;2670;42.720;23.336;2023-04-30T10:13:04;-22938.91;;;17.12;54.00
5296;BME280;2670;42.720;23.336;2023-04-30T10:15:37;-22943.75;;;17.29;55.00
5296;BME280;2670;42.720;23.336;2023-04-30T10:18:08;-22939.66;;;17.14;52.80
5296;BME280;2670;42.720;23.336;2023-04-30T10:20:37;-22922.75;;;16.56;55.04
5296;BME280;2670;42.720;23.336;2023-04-30T10:23:05;-22913.47;;;16.24;57.59
5296;BME280;2670;42.720;23.336;2023-04-30T10:25:34;-22907.59;;;16.03;60.25
5296;BME280;2670;42.720;23.336;2023-04-30T10:28:07;-22903.75;;;15.90;61.06
5296;BME280;2670;42.720;23.336;2023-04-30T10:30:34;-22891.84;;;15.49;70.65
5296;BME280;2670;42.720;23.336;2023-04-30T10:33:08;-22877.69;;;15.00;77.68
5296;BME280;2670;42.720;23.336;2023-04-30T10:35:43;-22865.75;;;14.58;80.28
5296;BME280;2670;42.720;23.336;2023-04-30T10:38:21;-22861.31;;;14.43;86.67
5296;BME280;2670;42.720;23.336;2023-04-30T10:40:54;-22858.09;;;14.32;91.13
5296;BME280;2670;42.720;23.336;2023-04-30T10:43:23;-22858.53;;;14.33;93.49
5296;BME280;2670;42.720;23.336;2023-04-30T10:45:50;-22866.19;;;14.60;100.00
5296;BME280;2670;42.720;23.336;2023-04-30T10:48:21;-22871.06;;;14.77;100.00
5296;BME280;2670;42.720;23.336;2023-04-30T10:50:51;-22884.19;;;15.22;86.52
5296;BME280;2670;42.720;23.336;2023-04-30T10:53:19;-22893.31;;;15.54;76.43
5296;BME280;2670;42.720;23.336;2023-04-30T10:55:50;-22891.97;;;15.49;78.21
5296;BME280;2670;42.720;23.336;2023-04-30T10:58:27;-22899.34;;;15.75;78.57
5296;BME280;2670;42.720;23.336;2023-04-30T11:01:03;-22906.25;;;15.99;76.00
5296;BME280;2670;42.720;23.336;2023-04-30T11:03:30;-22917.00;;;16.36;67.87
5296;BME280;2670;42.720;23.336;2023-04-30T11:05:59;-22913.75;;;16.25;72.05
5296;BME280;2670;42.720;23.336;2023-04-30T11:08:32;-22908.91;;;16.08;69.42
5296;BME280;2670;42.720;23.336;2023-04-30T11:10:59;-22915.53;;;16.31;68.53
5296;BME280;2670;42.720;23.336;2023-04-30T11:13:37;-22917.72;;;16.38;61.91
5296;BME280;2670;42.720;23.336;2023-04-30T11:16:04;-22912.44;;;16.20;65.53
5296;BME280;2670;42.720;23.336;2023-04-30T11:18:31;-22909.34;;;16.09;64.03
5296;BME280;2670;42.720;23.336;2023-04-30T11:20:58;-22913.63;;;16.24;61.64
5296;BME280;2670;42.720;23.336;2023-04-30T11:23:27;-22912.00;;;16.18;65.11
5296;BME280;2670;42.720;23.336;2023-04-30T11:25:54;-22909.66;;;16.10;64.03
5296;BME280;2670;42.720;23.336;2023-04-30T11:28:23;-22913.19;;;16.23;66.01
5296;BME280;2670;42.720;23.336;2023-04-30T11:30:53;-22911.13;;;16.15;75.89
5296;BME280;2670;42.720;23.336;2023-04-30T11:33:21;-22902.28;;;15.85;79.68
5296;BME280;2670;42.720;23.336;2023-04-30T11:35:48;-22897.59;;;15.68;83.82
5296;BME280;2670;42.720;23.336;2023-04-30T11:38:20;-22895.66;;;15.62;86.11
5296;BME280;2670;42.720;23.336;2023-04-30T11:40:47;-22891.69;;;15.48;83.49
5296;BME280;2670;42.720;23.336;2023-04-30T11:43:23;-22885.34;;;15.26;86.57
5296;BME280;2670;42.720;23.336;2023-04-30T11:46:04;-22885.50;;;15.27;85.01
5296;BME280;2670;42.720;23.336;2023-04-30T11:48:32;-22890.50;;;15.44;85.00
5296;BME280;2670;42.720;23.336;2023-04-30T11:51:02;-22896.69;;;15.65;83.48
5296;BME280;2670;42.720;23.336;2023-04-30T11:53:29;-22903.75;;;15.90;84.63
5296;BME280;2670;42.720;23.336;2023-04-30T11:56:01;-22903.03;;;15.87;83.37
5296;BME280;2670;42.720;23.336;2023-04-30T11:58:32;-22905.38;;;15.96;79.87
5296;BME280;2670;42.720;23.336;2023-04-30T12:00:59;-22904.78;;;15.93;78.42
5296;BME280;2670;42.720;23.336;2023-04-30T12:03:28;-22904.06;;;15.91;76.74
5296;BME280;2670;42.720;23.336;2023-04-30T12:05:55;-22904.06;;;15.91;74.63
5296;BME280;2670;42.720;23.336;2023-04-30T12:08:22;-22900.81;;;15.80;75.78
5296;BME280;2670;42.720;23.336;2023-04-30T12:10:49;-22902.28;;;15.85;78.84
5296;BME280;2670;42.720;23.336;2023-04-30T12:13:17;-22902.00;;;15.84;79.12
5296;BME280;2670;42.720;23.336;2023-04-30T12:15:56;-22897.00;;;15.66;81.71
5296;BME280;2670;42.720;23.336;2023-04-30T12:18:23;-22894.19;;;15.57;83.79
5296;BME280;2670;42.720;23.336;2023-04-30T12:20:52;-22892.56;;;15.51;88.77
5296;BME280;2670;42.720;23.336;2023-04-30T12:23:19;-22887.13;;;15.32;88.85
5296;BME280;2670;42.720;23.336;2023-04-30T12:25:46;-22878.72;;;15.03;90.05
5296;BME280;2670;42.720;23.336;2023-04-30T12:28:13;-22879.75;;;15.07;88.75
5296;BME280;2670;42.720;23.336;2023-04-30T12:30:41;-22878.00;;;15.01;91.11
5296;BME280;2670;42.720;23.336;2023-04-30T12:33:09;-22875.63;;;14.92;86.79
5296;BME280;2670;42.720;23.336;2023-04-30T12:35:36;-22877.69;;;15.00;87.41
5296;BME280;2670;42.720;23.336;2023-04-30T12:38:08;-22877.41;;;14.99;87.81
5296;BME280;2670;42.720;23.336;2023-04-30T12:40:35;-22876.66;;;14.96;87.24
5296;BME280;2670;42.720;23.336;2023-04-30T12:43:04;-22879.00;;;15.04;86.99
5296;BME280;2670;42.720;23.336;2023-04-30T12:45:45;-22881.06;;;15.11;83.23
5296;BME280;2670;42.720;23.336;2023-04-30T12:48:14;-22881.38;;;15.12;83.79
5296;BME280;2670;42.720;23.336;2023-04-30T12:50:41;-22884.91;;;15.25;81.51
5296;BME280;2670;42.720;23.336;2023-04-30T12:53:09;-22884.91;;;15.25;83.20
5296;BME280;2670;42.720;23.336;2023-04-30T12:55:37;-22889.31;;;15.40;81.03
5296;BME280;2670;42.720;23.336;2023-04-30T12:58:05;-22891.09;;;15.46;78.52
5296;BME280;2670;42.720;23.336;2023-04-30T13:00:42;-22895.66;;;15.62;75.01
5296;BME280;2670;42.720;23.336;2023-04-30T13:03:09;-22898.16;;;15.71;76.48
5296;BME280;2670;42.720;23.336;2023-04-30T13:05:36;-22890.22;;;15.43;73.59
5296;BME280;2670;42.720;23.336;2023-04-30T13:08:03;-22885.94;;;15.28;74.43
5296;BME280;2670;42.720;23.336;2023-04-30T13:10:34;-22892.41;;;15.51;75.96